Tabellarische Übersicht vom Dienstag, den 02.06.2020

Oder anderes Datum wählen:






max 19,3°C 88,0% 11,2°C 1019,7hPa 19,0°C 0,0km/h (0Bft) 0,0km/h 0° (N) ∑0,0l/m² 4,000klx ∑0,0min
min 11,5°C 54,0% 9,5°C 1018,7hPa 11,0°C 0,0km/h (0Bft) 0,0km/h 0° (N) ∑0,0l/m² 0,000klx ∑0,0min
Ø 14,0°C 79,0% 10,2°C 1019,1hPa 14,0°C 0,0km/h (0Bft) 0,0km/h 0° (N) ∑0,0l/m² 1,000klx ∑0,0min
Zeit Temperatur Luftfeuchte Taupunkt Luftdruck Windchill Windböen Windgeschwindigkeit Windrichtung Regen Helligkeit Regenzeit
06:30 11,8°C 86,2% 9,6°C 1018,8hPa 11,8°C 0,0km/h (0Bft) 0,0km/h 0,0l/m² 4,317klx 0,0min
06:25 11,8°C 86,2% 9,6°C 1018,9hPa 11,8°C 0,0km/h (0Bft) 0,0km/h 0,0l/m² 4,098klx 0,0min
06:20 11,8°C 86,2% 9,6°C 1018,8hPa 11,8°C 0,0km/h (0Bft) 0,0km/h 0,0l/m² 3,855klx 0,0min
06:15 11,7°C 86,9% 9,6°C 1018,8hPa 11,7°C 0,0km/h (0Bft) 0,0km/h 0,0l/m² 3,588klx 0,0min
06:10 11,6°C 87,4% 9,5°C 1018,8hPa 11,6°C 0,0km/h (0Bft) 0,0km/h 0,0l/m² 3,297klx 0,0min
06:05 11,6°C 87,6% 9,6°C 1018,8hPa 11,6°C 0,0km/h (0Bft) 0,0km/h 0,0l/m² 2,978klx 0,0min
06:00 11,5°C 87,6% 9,5°C 1018,8hPa 11,5°C 0,0km/h (0Bft) 0,0km/h 0,0l/m² 2,663klx 0,0min
05:55 11,6°C 87,4% 9,5°C 1018,7hPa 11,6°C 0,0km/h (0Bft) 0,0km/h 0,0l/m² 2,352klx 0,0min
05:50 11,6°C 87,4% 9,5°C 1018,7hPa 11,6°C 0,0km/h (0Bft) 0,0km/h 0,0l/m² 2,043klx 0,0min
05:45 11,5°C 87,4% 9,5°C 1018,8hPa 11,5°C 0,0km/h (0Bft) 0,0km/h 0,0l/m² 1,725klx 0,0min
05:40 11,6°C 87,0% 9,5°C 1018,8hPa 11,6°C 0,0km/h (0Bft) 0,0km/h 0,0l/m² 1,412klx 0,0min
05:35 11,7°C 86,5% 9,6°C 1018,8hPa 11,7°C 0,0km/h (0Bft) 0,0km/h 0,0l/m² 1,117klx 0,0min
05:30 11,8°C 86,5% 9,6°C 1018,8hPa 11,8°C 0,0km/h (0Bft) 0,0km/h 0,0l/m² 0,852klx 0,0min
05:25 11,9°C 86,0% 9,6°C 1018,8hPa 11,9°C 0,0km/h (0Bft) 0,0km/h 0,0l/m² 0,624klx 0,0min
05:20 12,1°C 86,1% 9,8°C 1018,7hPa 12,1°C 0,0km/h (0Bft) 0,0km/h 0,0l/m² 0,438klx 0,0min
05:15 12,0°C 86,6% 9,9°C 1018,8hPa 12,0°C 0,0km/h (0Bft) 0,0km/h 0,0l/m² 0,294klx 0,0min
05:10 12,0°C 86,8% 9,9°C 1018,8hPa 12,0°C 0,0km/h (0Bft) 0,0km/h 0,0l/m² 0,186klx 0,0min
05:05 12,0°C 86,9% 9,9°C 1018,8hPa 12,0°C 0,0km/h (0Bft) 0,0km/h 0,0l/m² 0,107klx 0,0min
05:00 12,0°C 86,8% 9,9°C 1018,8hPa 12,0°C 0,0km/h (0Bft) 0,0km/h 0,0l/m² 0,059klx 0,0min
04:55 12,0°C 86,7% 9,9°C 1018,8hPa 12,0°C 0,0km/h (0Bft) 0,0km/h 0,0l/m² 0,032klx 0,0min
04:50 12,0°C 86,6% 9,8°C 1018,8hPa 12,0°C 0,0km/h (0Bft) 0,0km/h 0,0l/m² 0,017klx 0,0min
04:45 12,1°C 86,5% 9,9°C 1018,9hPa 12,1°C 0,0km/h (0Bft) 0,0km/h 0,0l/m² 0,009klx 0,0min
04:40 12,2°C 86,2% 10,0°C 1018,9hPa 12,2°C 0,0km/h (0Bft) 0,0km/h 0,0l/m² 0,005klx 0,0min
04:35 12,3°C 86,0% 10,0°C 1018,9hPa 12,3°C 0,0km/h (0Bft) 0,0km/h 0,0l/m² 0,003klx 0,0min
04:30 12,2°C 86,4% 10,0°C 1019,0hPa 12,2°C 0,0km/h (0Bft) 0,0km/h 0,0l/m² 0,002klx 0,0min
04:25 12,3°C 86,3% 10,1°C 1019,0hPa 12,3°C 0,0km/h (0Bft) 0,0km/h 0,0l/m² 0,001klx 0,0min
04:20 12,5°C 85,8% 10,2°C 1019,0hPa 12,5°C 0,0km/h (0Bft) 0,0km/h 0,0l/m² 0,001klx 0,0min
04:15 12,5°C 85,4% 10,1°C 1018,9hPa 12,5°C 0,0km/h (0Bft) 0,0km/h 0,0l/m² 0,001klx 0,0min
04:10 12,5°C 85,3% 10,1°C 1018,9hPa 12,5°C 0,0km/h (0Bft) 0,0km/h 0,0l/m² 0,000klx 0,0min
04:05 12,7°C 84,9% 10,2°C 1018,9hPa 12,7°C 0,0km/h (0Bft) 0,0km/h 0,0l/m² 0,000klx 0,0min
04:00 12,8°C 84,8% 10,3°C 1018,9hPa 12,8°C 0,0km/h (0Bft) 0,0km/h 0,0l/m² 0,000klx 0,0min
03:55 12,6°C 85,4% 10,2°C 1018,9hPa 12,6°C 0,0km/h (0Bft) 0,0km/h 0,0l/m² 0,000klx 0,0min
03:50 12,7°C 85,5% 10,3°C 1018,8hPa 12,7°C 0,0km/h (0Bft) 0,0km/h 0,0l/m² 0,000klx 0,0min
03:45 12,7°C 85,8% 10,4°C 1018,9hPa 12,7°C 0,0km/h (0Bft) 0,0km/h 0,0l/m² 0,000klx 0,0min
03:40 12,7°C 86,7% 10,6°C 1018,9hPa 12,7°C 0,0km/h (0Bft) 0,0km/h 0,0l/m² 0,000klx 0,0min
03:35 12,8°C 87,2% 10,7°C 1018,9hPa 12,8°C 0,0km/h (0Bft) 0,0km/h 0,0l/m² 0,000klx 0,0min
03:30 13,0°C 87,5% 10,9°C 1018,9hPa 13,0°C 0,0km/h (0Bft) 0,0km/h 0,0l/m² 0,000klx 0,0min
03:25 13,1°C 87,7% 11,1°C 1018,9hPa 13,1°C 0,0km/h (0Bft) 0,0km/h 0,0l/m² 0,000klx 0,0min
03:20 13,2°C 87,5% 11,2°C 1018,9hPa 13,2°C 0,0km/h (0Bft) 0,0km/h 0,0l/m² 0,000klx 0,0min
03:15 13,4°C 86,6% 11,2°C 1018,9hPa 13,4°C 0,0km/h (0Bft) 0,0km/h 0,0l/m² 0,000klx 0,0min
03:10 13,6°C 85,4% 11,2°C 1019,0hPa 13,6°C 0,0km/h (0Bft) 0,0km/h 0,0l/m² 0,000klx 0,0min
03:05 13,8°C 84,0% 11,1°C 1019,0hPa 13,8°C 0,0km/h (0Bft) 0,0km/h 0,0l/m² 0,000klx 0,0min
03:00 13,9°C 82,9% 11,1°C 1019,0hPa 13,9°C 0,0km/h (0Bft) 0,0km/h 0,0l/m² 0,000klx 0,0min
02:55 14,0°C 83,2% 11,1°C 1019,1hPa 14,0°C 0,0km/h (0Bft) 0,0km/h 0,0l/m² 0,000klx 0,0min
02:50 14,1°C 82,5% 11,1°C 1019,1hPa 14,1°C 0,0km/h (0Bft) 0,0km/h 0,0l/m² 0,000klx 0,0min
02:45 14,1°C 82,4% 11,1°C 1019,2hPa 14,1°C 0,0km/h (0Bft) 0,0km/h 0,0l/m² 0,000klx 0,0min
02:40 14,1°C 82,3% 11,1°C 1019,2hPa 14,1°C 0,0km/h (0Bft) 0,0km/h 0,0l/m² 0,000klx 0,0min
02:35 14,1°C 82,3% 11,2°C 1019,2hPa 14,1°C 0,0km/h (0Bft) 0,0km/h 0,0l/m² 0,000klx 0,0min
02:30 14,2°C 80,9% 11,0°C 1019,2hPa 14,2°C 0,0km/h (0Bft) 0,0km/h 0,0l/m² 0,000klx 0,0min
02:25 14,3°C 79,3% 10,8°C 1019,2hPa 14,3°C 0,0km/h (0Bft) 0,0km/h 0,0l/m² 0,000klx 0,0min
02:20 14,5°C 78,4% 10,8°C 1019,3hPa 14,5°C 0,0km/h (0Bft) 0,0km/h 0,0l/m² 0,000klx 0,0min
02:15 14,6°C 77,6% 10,7°C 1019,3hPa 14,6°C 0,0km/h (0Bft) 0,0km/h 0,0l/m² 0,000klx 0,0min
02:10 14,6°C 77,1% 10,6°C 1019,3hPa 14,6°C 0,0km/h (0Bft) 0,0km/h 0,0l/m² 0,000klx 0,0min
02:05 14,9°C 75,1% 10,5°C 1019,3hPa 14,9°C 0,0km/h (0Bft) 0,0km/h 0,0l/m² 0,000klx 0,0min
02:00 15,2°C 73,4% 10,5°C 1019,4hPa 15,2°C 0,0km/h (0Bft) 0,0km/h 0,0l/m² 0,000klx 0,0min
01:55 15,4°C 72,7% 10,5°C 1019,4hPa 15,4°C 0,0km/h (0Bft) 0,0km/h 0,0l/m² 0,000klx 0,0min
01:50 15,5°C 72,4% 10,5°C 1019,4hPa 15,5°C 0,0km/h (0Bft) 0,0km/h 0,0l/m² 0,000klx 0,0min
01:45 15,6°C 71,8% 10,6°C 1019,4hPa 15,6°C 0,0km/h (0Bft) 0,0km/h 0,0l/m² 0,000klx 0,0min
01:40 15,7°C 71,3% 10,5°C 1019,5hPa 15,7°C 0,0km/h (0Bft) 0,0km/h 0,0l/m² 0,000klx 0,0min
01:35 15,8°C 71,0% 10,5°C 1019,5hPa 15,8°C 0,0km/h (0Bft) 0,0km/h 0,0l/m² 0,000klx 0,0min
01:30 15,9°C 70,0% 10,4°C 1019,5hPa 15,9°C 0,0km/h (0Bft) 0,0km/h 0,0l/m² 0,000klx 0,0min
01:25 16,0°C 69,7% 10,4°C 1019,5hPa 16,0°C 0,0km/h (0Bft) 0,0km/h 0,0l/m² 0,000klx 0,0min
01:20 16,0°C 69,4% 10,4°C 1019,5hPa 16,0°C 0,0km/h (0Bft) 0,0km/h 0,0l/m² 0,000klx 0,0min
01:15 16,0°C 69,0% 10,3°C 1019,6hPa 16,0°C 0,0km/h (0Bft) 0,0km/h 0,0l/m² 0,000klx 0,0min
01:10 16,3°C 67,1% 10,2°C 1019,6hPa 16,3°C 0,0km/h (0Bft) 0,0km/h 0,0l/m² 0,000klx 0,0min
01:05 16,5°C 65,8% 10,1°C 1019,7hPa 16,5°C 0,0km/h (0Bft) 0,0km/h 0,0l/m² 0,000klx 0,0min
01:00 16,6°C 65,3% 10,1°C 1019,7hPa 16,6°C 0,0km/h (0Bft) 0,0km/h 0,0l/m² 0,000klx 0,0min
00:55 17,0°C 63,0% 9,9°C 1019,7hPa 17,0°C 0,0km/h (0Bft) 0,0km/h 0,0l/m² 0,000klx 0,0min
00:50 17,2°C 62,5% 10,0°C 1019,7hPa 17,2°C 0,0km/h (0Bft) 0,0km/h 0,0l/m² 0,000klx 0,0min
00:45 17,3°C 61,9% 9,9°C 1019,7hPa 17,3°C 0,0km/h (0Bft) 0,0km/h 0,0l/m² 0,000klx 0,0min
00:40 17,4°C 61,5% 10,0°C 1019,7hPa 17,4°C 0,0km/h (0Bft) 0,0km/h 0,0l/m² 0,000klx 0,0min
00:35 17,7°C 60,4% 9,9°C 1019,7hPa 17,7°C 0,0km/h (0Bft) 0,0km/h 0,0l/m² 0,000klx 0,0min
00:30 17,9°C 59,7% 9,9°C 1019,7hPa 17,9°C 0,0km/h (0Bft) 0,0km/h 0,0l/m² 0,000klx 0,0min
00:25 18,1°C 59,2% 10,0°C 1019,6hPa 18,1°C 0,0km/h (0Bft) 0,0km/h 0,0l/m² 0,000klx 0,0min
00:20 18,4°C 58,3% 10,0°C 1019,6hPa 18,4°C 0,0km/h (0Bft) 0,0km/h 0,0l/m² 0,000klx 0,0min
00:15 18,5°C 58,1% 10,1°C 1019,6hPa 18,5°C 0,0km/h (0Bft) 0,0km/h 0,0l/m² 0,000klx 0,0min
00:10 18,8°C 57,1% 10,1°C 1019,6hPa 18,8°C 0,0km/h (0Bft) 0,0km/h 0,0l/m² 0,000klx 0,0min
00:05 19,1°C 54,8% 9,8°C 1019,6hPa 19,1°C 0,0km/h (0Bft) 0,0km/h 0,0l/m² 0,000klx 0,0min
00:00 19,3°C 53,9% 9,7°C 1019,6hPa 19,3°C 0,0km/h (0Bft) 0,0km/h 0,0l/m² 0,000klx 0,0min

Aktuelle Wetterdaten

02.06.2020 06:30 Uhr